createdAt,value
2019-01-26T00:02:26.157Z,27.87
2019-01-26T00:04:56.048Z,28.90
2019-01-26T00:07:25.985Z,27.40
2019-01-26T00:09:55.914Z,24.73
2019-01-26T00:12:25.878Z,25.33
2019-01-26T00:14:55.810Z,24.80
2019-01-26T00:17:25.816Z,27.13
2019-01-26T00:19:55.817Z,27.00
2019-01-26T00:22:25.758Z,26.77
2019-01-26T00:24:55.710Z,28.13
2019-01-26T00:27:25.647Z,29.83
2019-01-26T00:29:55.598Z,27.67
2019-01-26T00:32:25.524Z,27.00
2019-01-26T00:34:55.379Z,26.33
2019-01-26T00:37:25.242Z,27.67
2019-01-26T00:39:55.167Z,31.67
2019-01-26T00:42:25.117Z,27.17
2019-01-26T00:44:54.974Z,27.73
2019-01-26T00:47:24.834Z,29.10
2019-01-26T00:49:54.754Z,29.03
2019-01-26T00:52:24.605Z,27.67
2019-01-26T00:54:54.409Z,31.03
2019-01-26T00:57:24.333Z,30.60
2019-01-26T00:59:54.202Z,28.70
2019-01-26T01:02:24.199Z,28.47
2019-01-26T01:04:54.135Z,26.00
2019-01-26T01:07:24.086Z,28.77
2019-01-26T01:09:53.939Z,28.57
2019-01-26T01:12:23.870Z,30.70
2019-01-26T01:14:53.810Z,27.97
2019-01-26T01:17:23.738Z,30.00
2019-01-26T01:19:53.626Z,28.57
2019-01-26T01:22:23.487Z,28.67
2019-01-26T01:24:53.469Z,31.73
2019-01-26T01:27:23.354Z,31.13
2019-01-26T01:29:53.296Z,28.90
2019-01-26T01:32:23.258Z,28.37
2019-01-26T01:34:53.273Z,28.33
2019-01-26T01:37:23.245Z,31.30
2019-01-26T01:39:53.120Z,29.33
2019-01-26T01:42:22.996Z,26.73
2019-01-26T01:44:52.967Z,28.90
2019-01-26T01:47:22.828Z,27.70
2019-01-26T01:49:52.784Z,26.53
2019-01-26T01:52:22.638Z,29.67
2019-01-26T01:54:52.565Z,30.43
2019-01-26T01:57:22.503Z,30.50
2019-01-26T01:59:52.299Z,28.23
2019-01-26T02:02:22.225Z,29.43
2019-01-26T02:04:52.166Z,28.47
2019-01-26T02:07:22.126Z,29.87
2019-01-26T02:09:52.063Z,29.73
2019-01-26T02:12:23.005Z,30.93
2019-01-26T02:14:53.850Z,29.17
2019-01-26T02:17:23.700Z,29.93
2019-01-26T02:19:53.637Z,29.37
2019-01-26T02:22:23.494Z,29.43
2019-01-26T02:24:53.490Z,28.07
2019-01-26T02:27:23.428Z,29.80
2019-01-26T02:29:53.289Z,29.20
2019-01-26T02:32:23.094Z,29.03
2019-01-26T02:34:53.038Z,31.57
2019-01-26T02:37:22.984Z,30.03
2019-01-26T02:39:52.920Z,28.67
2019-01-26T02:42:22.939Z,29.93
2019-01-26T02:44:52.869Z,29.93
2019-01-26T02:47:22.809Z,28.70
2019-01-26T02:49:52.775Z,30.20
2019-01-26T02:52:22.635Z,27.47
2019-01-26T02:54:52.593Z,27.87
2019-01-26T02:57:22.446Z,32.37
2019-01-26T02:59:52.378Z,30.40
2019-01-26T03:02:22.289Z,30.47
2019-01-26T03:04:52.309Z,28.93
2019-01-26T03:07:22.290Z,32.10
2019-01-26T03:09:52.192Z,29.13
2019-01-26T03:12:22.113Z,30.90
2019-01-26T03:14:52.090Z,30.03
2019-01-26T03:17:22.022Z,30.70
2019-01-26T03:19:51.890Z,29.37
2019-01-26T03:22:21.968Z,32.47
2019-01-26T03:24:51.920Z,31.47
2019-01-26T03:27:21.730Z,29.37
2019-01-26T03:29:51.599Z,30.40
2019-01-26T03:32:21.555Z,30.07
2019-01-26T03:34:51.423Z,30.20
2019-01-26T03:37:21.359Z,28.83
2019-01-26T03:39:51.325Z,28.87
2019-01-26T03:42:21.267Z,31.23
2019-01-26T03:44:51.282Z,31.70
2019-01-26T03:47:21.210Z,31.13
2019-01-26T03:49:51.148Z,29.50
2019-01-26T03:52:21.100Z,31.00
2019-01-26T03:54:51.969Z,30.60
2019-01-26T03:57:21.851Z,28.07
2019-01-26T03:59:51.736Z,29.13
2019-01-26T04:02:22.642Z,29.77
2019-01-26T04:04:52.502Z,28.50
2019-01-26T04:07:22.369Z,29.73
2019-01-26T04:09:52.228Z,30.53
2019-01-26T04:12:22.085Z,29.07
2019-01-26T04:14:51.988Z,29.87
2019-01-26T04:17:22.228Z,30.63
2019-01-26T04:19:52.147Z,32.40
2019-01-26T04:22:22.079Z,30.30
2019-01-26T04:24:51.929Z,30.13
2019-01-26T04:27:21.960Z,31.73
2019-01-26T04:29:51.822Z,31.73
2019-01-26T04:32:21.841Z,30.20
2019-01-26T04:34:51.769Z,30.17
2019-01-26T04:37:21.310Z,29.70
2019-01-26T04:39:51.245Z,28.07
2019-01-26T04:42:21.207Z,29.97
2019-01-26T04:44:51.138Z,28.47
2019-01-26T04:47:21.009Z,30.13
2019-01-26T04:49:50.902Z,28.13
2019-01-26T04:52:20.751Z,30.13
2019-01-26T04:54:50.626Z,28.37
2019-01-26T04:57:20.474Z,31.03
2019-01-26T04:59:50.342Z,29.13
2019-01-26T05:02:20.150Z,28.83
2019-01-26T05:04:49.997Z,31.23
2019-01-26T05:07:19.858Z,29.43
2019-01-26T05:09:49.846Z,29.03
2019-01-26T05:12:19.713Z,27.60
2019-01-26T05:14:49.574Z,30.90
2019-01-26T05:17:19.509Z,32.00
2019-01-26T05:19:49.470Z,29.17
2019-01-26T05:22:19.406Z,31.23
2019-01-26T05:24:49.343Z,28.47
2019-01-26T05:27:19.198Z,29.83
2019-01-26T05:29:49.140Z,29.97
2019-01-26T05:32:19.070Z,30.77
2019-01-26T05:34:49.046Z,29.13
2019-01-26T05:37:18.926Z,29.93
2019-01-26T05:39:48.786Z,28.90
2019-01-26T05:42:18.669Z,31.33
2019-01-26T05:44:48.598Z,30.13
2019-01-26T05:47:18.522Z,30.47
2019-01-26T05:49:48.462Z,31.33
2019-01-26T05:52:18.331Z,32.47
2019-01-26T05:54:48.219Z,31.37
2019-01-26T05:57:18.182Z,28.53
2019-01-26T05:59:48.058Z,30.10
2019-01-26T06:02:18.018Z,30.90
2019-01-26T06:04:47.962Z,30.23
2019-01-26T06:07:17.899Z,31.37
2019-01-26T06:09:47.843Z,29.93
2019-01-26T06:12:17.798Z,29.93
2019-01-26T06:14:47.740Z,30.37
2019-01-26T06:17:17.669Z,31.83
2019-01-26T06:19:48.575Z,28.43
2019-01-26T06:22:18.425Z,29.57
2019-01-26T06:24:48.321Z,28.60
2019-01-26T06:27:18.253Z,30.40
2019-01-26T06:29:48.120Z,31.80
2019-01-26T06:32:18.049Z,28.53
2019-01-26T06:34:47.902Z,30.33
2019-01-26T06:37:17.771Z,32.00
2019-01-26T06:39:47.618Z,31.43
2019-01-26T06:42:17.493Z,28.83
2019-01-26T06:44:47.356Z,29.57
2019-01-26T06:47:17.252Z,30.50
2019-01-26T06:49:47.182Z,30.17
2019-01-26T06:52:17.110Z,30.70
2019-01-26T06:54:46.981Z,31.20
2019-01-26T06:57:16.841Z,29.40
2019-01-26T06:59:46.774Z,29.57
2019-01-26T07:02:16.702Z,31.83
2019-01-26T07:04:54.734Z,30.73
2019-01-26T07:07:24.598Z,30.63
2019-01-26T07:09:54.530Z,29.70
2019-01-26T07:12:24.449Z,31.10
2019-01-26T07:14:54.383Z,29.37
2019-01-26T07:17:24.322Z,30.63
2019-01-26T07:19:54.256Z,31.20
2019-01-26T07:22:24.203Z,30.77
2019-01-26T07:24:54.212Z,32.07
2019-01-26T07:27:24.209Z,29.43
2019-01-26T07:29:54.267Z,32.30
2019-01-26T07:32:24.268Z,30.90
2019-01-26T07:34:54.205Z,31.10
2019-01-26T07:37:24.146Z,32.87
2019-01-26T07:39:54.090Z,32.73
2019-01-26T07:42:24.130Z,30.37
2019-01-26T07:44:54.074Z,32.23
2019-01-26T07:47:24.033Z,33.33
2019-01-26T07:49:53.972Z,31.03
2019-01-26T07:52:23.906Z,31.47
2019-01-26T07:54:53.926Z,32.37
2019-01-26T07:57:23.826Z,32.43
2019-01-26T07:59:53.704Z,34.40
2019-01-26T08:02:23.573Z,32.80
2019-01-26T08:04:53.566Z,31.93
2019-01-26T08:07:23.493Z,31.90
2019-01-26T08:09:53.358Z,29.70
2019-01-26T08:12:23.309Z,34.43
2019-01-26T08:14:53.282Z,34.77
2019-01-26T08:17:23.142Z,34.33
2019-01-26T08:19:53.009Z,33.83
2019-01-26T08:22:23.238Z,31.70
2019-01-26T08:24:53.164Z,32.17
2019-01-26T08:27:23.325Z,31.67
2019-01-26T08:29:53.258Z,34.10
2019-01-26T08:32:23.124Z,33.77
2019-01-26T08:34:53.052Z,33.93
2019-01-26T08:37:23.046Z,31.30
2019-01-26T08:39:52.988Z,31.23
2019-01-26T08:42:22.987Z,32.03
2019-01-26T08:44:52.914Z,34.40
2019-01-26T08:47:22.705Z,32.13
2019-01-26T08:49:52.562Z,32.63
2019-01-26T08:52:22.421Z,34.10
2019-01-26T08:54:52.284Z,33.70
2019-01-26T08:57:22.273Z,33.40
2019-01-26T08:59:52.207Z,29.93
2019-01-26T09:02:29.787Z,33.97
2019-01-26T09:05:00.191Z,36.70
2019-01-26T09:07:30.201Z,34.63
2019-01-26T09:10:00.246Z,40.43
2019-01-26T09:12:30.260Z,38.27
2019-01-26T09:15:00.237Z,34.67
2019-01-26T09:17:30.150Z,37.40
2019-01-26T09:20:00.223Z,40.93
2019-01-26T09:22:30.291Z,41.43
2019-01-26T09:25:00.262Z,56.67
2019-01-26T09:27:30.238Z,59.57
2019-01-26T09:30:00.235Z,60.97
2019-01-26T09:32:30.146Z,60.33
2019-01-26T09:35:00.101Z,67.60
2019-01-26T09:37:30.214Z,82.90
2019-01-26T09:40:00.233Z,88.50
2019-01-26T09:42:30.253Z,96.50
2019-01-26T09:45:00.192Z,90.47
2019-01-26T09:47:30.044Z,87.73
2019-01-26T09:49:59.912Z,91.97
2019-01-26T09:52:29.851Z,88.33
2019-01-26T09:54:59.795Z,86.53
2019-01-26T09:57:29.754Z,84.17
2019-01-26T09:59:59.610Z,80.77
2019-01-26T10:02:29.560Z,84.97
2019-01-26T10:04:59.429Z,85.50
2019-01-26T10:07:29.313Z,82.23
2019-01-26T10:09:59.245Z,84.77
2019-01-26T10:12:29.234Z,90.23
2019-01-26T10:14:59.182Z,75.50
2019-01-26T10:17:29.215Z,83.10
2019-01-26T10:19:59.141Z,87.17
2019-01-26T10:22:29.059Z,85.40
2019-01-26T10:24:58.990Z,92.20
2019-01-26T10:27:28.943Z,80.40
2019-01-26T10:29:58.878Z,77.07
2019-01-26T10:32:28.918Z,79.80
2019-01-26T10:34:58.776Z,71.47
2019-01-26T10:37:29.705Z,68.87
2019-01-26T10:39:59.933Z,75.73
2019-01-26T10:42:32.228Z,74.10
2019-01-26T10:45:02.576Z,68.10
2019-01-26T10:47:32.484Z,69.87
2019-01-26T10:50:02.484Z,78.80
2019-01-26T10:52:32.466Z,65.17
2019-01-26T10:55:02.354Z,62.97
2019-01-26T10:57:32.331Z,64.10
2019-01-26T11:00:02.355Z,66.03
2019-01-26T11:02:32.426Z,66.90
2019-01-26T11:05:02.388Z,63.43
2019-01-26T11:07:32.326Z,62.73
2019-01-26T11:10:02.359Z,61.17
2019-01-26T11:12:33.882Z,62.00
2019-01-26T11:15:03.944Z,59.20
2019-01-26T11:17:33.908Z,64.30
2019-01-26T11:20:03.935Z,60.03
2019-01-26T11:22:33.923Z,58.70
2019-01-26T11:25:04.014Z,57.17
2019-01-26T11:27:34.010Z,57.77
2019-01-26T11:30:04.442Z,58.20
2019-01-26T11:32:34.455Z,58.67
2019-01-26T11:35:04.744Z,55.80
2019-01-26T11:37:34.800Z,53.87
2019-01-26T11:40:15.382Z,57.83
2019-01-26T11:42:45.250Z,55.27
2019-01-26T11:45:37.257Z,55.03
2019-01-26T11:48:13.258Z,56.03
2019-01-26T11:50:46.135Z,51.50
2019-01-26T11:53:16.061Z,58.70
2019-01-26T11:55:54.527Z,56.87
2019-01-26T11:58:24.525Z,53.13
2019-01-26T12:01:05.695Z,52.77
2019-01-26T12:03:40.075Z,52.63
2019-01-26T12:06:35.066Z,57.53
2019-01-26T12:09:08.150Z,54.23
2019-01-26T12:11:38.175Z,61.27
2019-01-26T12:14:08.165Z,55.67
2019-01-26T12:16:38.138Z,54.30
2019-01-26T12:19:08.162Z,51.07
2019-01-26T12:21:38.098Z,53.07
2019-01-26T12:24:07.971Z,57.63
2019-01-26T12:26:37.848Z,53.70
2019-01-26T12:29:07.795Z,53.83
2019-01-26T12:31:37.730Z,52.73
2019-01-26T12:34:07.674Z,53.97
2019-01-26T12:36:37.565Z,58.10
2019-01-26T12:39:10.317Z,46.20
2019-01-26T12:41:40.229Z,47.83
2019-01-26T12:44:10.098Z,52.53
2019-01-26T12:46:40.022Z,53.17
2019-01-26T12:49:09.959Z,49.77
2019-01-26T12:51:39.898Z,50.53
2019-01-26T12:54:09.834Z,51.43
2019-01-26T12:56:39.738Z,48.40
2019-01-26T12:59:09.700Z,47.70
2019-01-26T13:01:39.721Z,49.43
2019-01-26T13:04:09.859Z,47.57
2019-01-26T13:06:39.742Z,52.03
2019-01-26T13:09:10.960Z,50.43
2019-01-26T13:11:42.662Z,52.07
2019-01-26T13:14:12.553Z,46.83
2019-01-26T13:16:42.420Z,47.07
2019-01-26T13:19:12.358Z,52.57
2019-01-26T13:21:42.296Z,46.37
2019-01-26T13:24:12.301Z,47.67
2019-01-26T13:26:43.226Z,43.80
2019-01-26T13:29:13.076Z,46.93
2019-01-26T13:31:43.026Z,46.03
2019-01-26T13:34:12.993Z,44.63
2019-01-26T13:36:42.937Z,44.83
2019-01-26T13:39:12.841Z,45.73
2019-01-26T13:41:42.810Z,44.10
2019-01-26T13:44:12.782Z,43.17
2019-01-26T13:46:42.756Z,42.50
2019-01-26T13:49:12.685Z,40.97
2019-01-26T13:51:43.920Z,40.90
2019-01-26T13:54:14.136Z,41.83
2019-01-26T13:56:44.179Z,41.37
2019-01-26T13:59:14.169Z,42.07
2019-01-26T14:01:44.041Z,43.37
2019-01-26T14:04:14.035Z,40.07
2019-01-26T14:06:44.794Z,41.50
2019-01-26T14:09:15.613Z,40.67
2019-01-26T14:11:45.572Z,38.90
2019-01-26T14:14:15.455Z,37.53
2019-01-26T14:16:45.418Z,39.47
2019-01-26T14:19:15.276Z,38.40
2019-01-26T14:21:46.223Z,40.73
2019-01-26T14:24:16.081Z,42.60
2019-01-26T14:26:49.842Z,42.13
2019-01-26T14:29:17.614Z,41.27
2019-01-26T14:31:47.480Z,39.30
2019-01-26T14:34:17.407Z,39.43
2019-01-26T14:36:47.318Z,42.27
2019-01-26T14:39:17.233Z,43.60
2019-01-26T14:41:47.101Z,40.70
2019-01-26T14:44:17.120Z,41.03
2019-01-26T14:46:47.106Z,45.43
2019-01-26T14:49:16.958Z,41.77
2019-01-26T14:51:46.942Z,39.63
2019-01-26T14:54:16.993Z,41.23
2019-01-26T14:56:46.966Z,41.63
2019-01-26T14:59:16.950Z,43.80
2019-01-26T15:01:46.910Z,50.77
2019-01-26T15:04:16.874Z,42.83
2019-01-26T15:06:46.820Z,41.20
2019-01-26T15:09:16.777Z,43.27
2019-01-26T15:11:46.654Z,45.47
2019-01-26T15:14:16.595Z,49.40
2019-01-26T15:16:46.573Z,48.33
2019-01-26T15:19:16.584Z,51.53
2019-01-26T15:21:46.471Z,49.23
2019-01-26T15:24:16.348Z,49.30
2019-01-26T15:26:46.276Z,50.97
2019-01-26T15:29:16.230Z,48.60
2019-01-26T15:31:46.099Z,54.03
2019-01-26T15:34:15.987Z,50.47
2019-01-26T15:36:45.867Z,49.47
2019-01-26T15:39:15.754Z,53.53
2019-01-26T15:41:45.698Z,52.93
2019-01-26T15:44:15.574Z,51.07
2019-01-26T15:46:45.461Z,49.90
2019-01-26T15:49:15.422Z,53.40
2019-01-26T15:51:45.419Z,54.87
2019-01-26T15:54:15.503Z,48.27
2019-01-26T15:56:45.538Z,51.73
2019-01-26T15:59:15.398Z,49.97
2019-01-26T16:01:45.367Z,48.20
2019-01-26T16:04:16.205Z,52.10
2019-01-26T16:06:46.195Z,47.63
2019-01-26T16:09:16.142Z,48.80
2019-01-26T16:11:46.084Z,47.90
2019-01-26T16:14:16.135Z,49.27
2019-01-26T16:16:46.113Z,48.87
2019-01-26T16:19:16.045Z,47.83
2019-01-26T16:21:45.927Z,48.73
2019-01-26T16:24:15.892Z,49.33
2019-01-26T16:26:45.790Z,49.43
2019-01-26T16:29:15.666Z,48.60
2019-01-26T16:31:45.667Z,49.37
2019-01-26T16:34:15.652Z,48.10
2019-01-26T16:36:45.539Z,48.87
2019-01-26T16:39:15.480Z,47.90
2019-01-26T16:41:45.456Z,47.57
2019-01-26T16:44:15.483Z,45.13
2019-01-26T16:46:45.586Z,47.27
2019-01-26T16:49:15.605Z,46.57
2019-01-26T16:51:45.731Z,48.93
2019-01-26T16:54:17.359Z,54.53
2019-01-26T16:56:47.322Z,50.80
2019-01-26T16:59:17.189Z,48.97
2019-01-26T17:01:46.994Z,51.50
2019-01-26T17:04:16.950Z,48.93
2019-01-26T17:06:46.945Z,49.47
2019-01-26T17:09:16.923Z,47.67
2019-01-26T17:11:46.788Z,50.30
2019-01-26T17:14:16.684Z,49.70
2019-01-26T17:16:46.626Z,47.17
2019-01-26T17:19:16.601Z,54.77
2019-01-26T17:21:46.502Z,54.03
2019-01-26T17:24:16.557Z,53.20
2019-01-26T17:26:52.584Z,52.90
2019-01-26T17:29:18.199Z,53.30
2019-01-26T17:31:48.246Z,63.50
2019-01-26T17:34:18.177Z,65.17
2019-01-26T17:36:48.128Z,62.63
2019-01-26T17:39:17.988Z,58.63
2019-01-26T17:41:47.957Z,57.00
2019-01-26T17:44:17.810Z,58.23
2019-01-26T17:46:47.666Z,66.63
2019-01-26T17:49:17.607Z,62.37
2019-01-26T17:51:47.471Z,58.73
2019-01-26T17:54:17.391Z,61.13
2019-01-26T17:56:47.369Z,56.03
2019-01-26T17:59:17.362Z,62.23
2019-01-26T18:01:47.300Z,58.50
2019-01-26T18:04:17.250Z,61.27
2019-01-26T18:06:47.110Z,58.33
2019-01-26T18:09:17.153Z,59.23
2019-01-26T18:11:47.122Z,64.13
2019-01-26T18:14:17.073Z,61.27
2019-01-26T18:16:46.942Z,63.13
2019-01-26T18:19:16.875Z,58.57
2019-01-26T18:21:46.905Z,59.83
2019-01-26T18:24:16.833Z,57.23
2019-01-26T18:26:46.767Z,62.40
2019-01-26T18:29:16.707Z,69.00
2019-01-26T18:31:46.673Z,60.77
2019-01-26T18:34:16.752Z,66.23
2019-01-26T18:36:46.703Z,58.37
2019-01-26T18:39:16.786Z,59.97
2019-01-26T18:41:46.773Z,61.50
2019-01-26T18:44:17.632Z,59.87
2019-01-26T18:46:47.572Z,63.43
2019-01-26T18:49:17.444Z,62.97
2019-01-26T18:51:47.422Z,58.43
2019-01-26T18:54:17.401Z,58.53
2019-01-26T18:56:47.417Z,59.90
2019-01-26T18:59:17.357Z,55.83
2019-01-26T19:01:47.355Z,57.17
2019-01-26T19:04:20.849Z,59.33
2019-01-26T19:06:50.780Z,59.13
2019-01-26T19:09:20.842Z,59.77
2019-01-26T19:11:50.795Z,55.13
2019-01-26T19:14:20.732Z,56.97
2019-01-26T19:16:50.798Z,53.23
2019-01-26T19:19:20.778Z,56.10
2019-01-26T19:21:50.864Z,55.60
2019-01-26T19:24:20.889Z,54.07
2019-01-26T19:26:50.870Z,53.47
2019-01-26T19:29:20.739Z,56.20
2019-01-26T19:31:50.635Z,60.03
2019-01-26T19:34:20.542Z,55.03
2019-01-26T19:36:50.549Z,54.37
2019-01-26T19:39:20.407Z,55.07
2019-01-26T19:41:50.446Z,53.37
2019-01-26T19:44:20.324Z,51.80
2019-01-26T19:46:50.279Z,53.33
2019-01-26T19:49:20.262Z,50.37
2019-01-26T19:51:50.222Z,53.43
2019-01-26T19:54:20.100Z,55.40
2019-01-26T19:56:50.040Z,54.23
2019-01-26T19:59:19.976Z,56.17
2019-01-26T20:01:50.003Z,54.17
2019-01-26T20:04:20.301Z,54.40
2019-01-26T20:06:50.314Z,51.60
2019-01-26T20:09:20.581Z,53.43
2019-01-26T20:11:50.555Z,52.77
2019-01-26T20:14:20.503Z,53.17
2019-01-26T20:16:50.605Z,53.37
2019-01-26T20:19:20.574Z,53.20
2019-01-26T20:21:50.518Z,56.33
2019-01-26T20:24:20.464Z,52.03
2019-01-26T20:26:50.473Z,56.70
2019-01-26T20:29:20.470Z,54.40
2019-01-26T20:31:50.390Z,53.63
2019-01-26T20:34:20.407Z,54.57
2019-01-26T20:36:50.378Z,55.17
2019-01-26T20:39:20.388Z,52.40
2019-01-26T20:41:50.458Z,53.60
2019-01-26T20:44:20.526Z,58.10
2019-01-26T20:46:50.313Z,52.97
2019-01-26T20:49:20.329Z,54.00
2019-01-26T20:51:50.361Z,57.23
2019-01-26T20:54:20.297Z,53.17
2019-01-26T20:56:50.150Z,55.30
2019-01-26T20:59:20.174Z,56.47
2019-01-26T21:01:50.054Z,55.73
2019-01-26T21:04:19.924Z,53.50
2019-01-26T21:06:50.845Z,57.37
2019-01-26T21:09:20.809Z,52.93
2019-01-26T21:11:50.788Z,54.33
2019-01-26T21:14:20.730Z,55.10
2019-01-26T21:16:50.556Z,54.20
2019-01-26T21:19:20.498Z,56.27
2019-01-26T21:21:51.490Z,55.23
2019-01-26T21:24:21.387Z,55.67
2019-01-26T21:26:51.278Z,53.67
2019-01-26T21:29:21.126Z,58.13
2019-01-26T21:31:51.223Z,56.23
2019-01-26T21:34:21.298Z,55.10
2019-01-26T21:36:51.247Z,55.70
2019-01-26T21:39:21.120Z,55.73
2019-01-26T21:41:51.072Z,54.60
2019-01-26T21:44:20.931Z,57.23
2019-01-26T21:46:50.926Z,57.03
2019-01-26T21:49:20.930Z,57.63
2019-01-26T21:51:50.885Z,59.27
2019-01-26T21:54:20.769Z,58.60
2019-01-26T21:56:50.710Z,60.63
2019-01-26T21:59:20.699Z,60.80
2019-01-26T22:01:50.913Z,62.17
2019-01-26T22:04:20.957Z,59.10
2019-01-26T22:06:50.983Z,65.10
2019-01-26T22:09:21.093Z,61.07
2019-01-26T22:11:51.146Z,63.87
2019-01-26T22:14:21.138Z,63.77
2019-01-26T22:16:51.040Z,64.07
2019-01-26T22:19:21.838Z,72.03
2019-01-26T22:21:52.453Z,70.50
2019-01-26T22:24:22.338Z,72.90
2019-01-26T22:26:52.274Z,70.80
2019-01-26T22:29:22.153Z,71.53
2019-01-26T22:31:52.017Z,70.90
2019-01-26T22:34:21.941Z,71.80
2019-01-26T22:36:51.901Z,75.43
2019-01-26T22:39:21.794Z,71.80
2019-01-26T22:41:51.833Z,73.90
2019-01-26T22:44:21.839Z,75.03
2019-01-26T22:46:51.835Z,72.20
2019-01-26T22:49:21.694Z,70.17
2019-01-26T22:51:53.393Z,74.27
2019-01-26T22:54:23.215Z,73.00
2019-01-26T22:56:53.289Z,71.33
2019-01-26T22:59:23.169Z,67.87
2019-01-26T23:01:53.314Z,72.50
2019-01-26T23:05:13.487Z,69.67
2019-01-26T23:07:49.426Z,68.23
2019-01-26T23:11:09.422Z,67.50
2019-01-26T23:14:09.596Z,72.63
2019-01-26T23:17:32.579Z,67.57
2019-01-26T23:20:29.778Z,69.83
2019-01-26T23:23:39.079Z,68.37
2019-01-26T23:26:39.349Z,68.93
2019-01-26T23:29:54.250Z,66.33
2019-01-26T23:32:24.234Z,65.70
2019-01-26T23:34:54.190Z,67.20
2019-01-26T23:37:24.123Z,71.23
2019-01-26T23:39:53.991Z,64.83
2019-01-26T23:42:23.939Z,65.90
2019-01-26T23:44:53.826Z,67.43
2019-01-26T23:47:23.870Z,65.57
2019-01-26T23:49:53.826Z,62.63
2019-01-26T23:52:23.830Z,64.33
2019-01-26T23:54:53.794Z,64.73
2019-01-26T23:57:23.764Z,63.17
2019-01-26T23:59:53.954Z,65.30
